createdAt,value
2023-02-13T00:00:17.637Z,19.63
2023-02-13T00:02:44.514Z,27.83
2023-02-13T00:05:11.374Z,22.83
2023-02-13T00:07:38.359Z,27.30
2023-02-13T00:10:06.215Z,33.72
2023-02-13T00:12:33.104Z,26.27
2023-02-13T00:15:00.557Z,27.15
2023-02-13T00:17:27.739Z,30.65
2023-02-13T00:19:54.600Z,27.25
2023-02-13T00:22:21.371Z,28.00
2023-02-13T00:24:48.189Z,27.05
2023-02-13T00:27:14.979Z,26.80
2023-02-13T00:29:41.820Z,24.27
2023-02-13T00:32:08.774Z,25.05
2023-02-13T00:34:35.877Z,26.08
2023-02-13T00:37:02.735Z,27.65
2023-02-13T00:39:29.549Z,26.15
2023-02-13T00:41:56.360Z,28.10
2023-02-13T00:44:23.141Z,27.92
2023-02-13T00:46:50.034Z,27.83
2023-02-13T00:49:16.941Z,23.60
2023-02-13T00:51:43.751Z,24.13
2023-02-13T00:54:10.606Z,26.38
2023-02-13T00:56:37.415Z,21.75
2023-02-13T00:59:04.206Z,22.27
2023-02-13T01:01:31.123Z,21.17
2023-02-13T01:03:58.043Z,19.98
2023-02-13T01:06:25.097Z,18.30
2023-02-13T01:08:51.866Z,21.55
2023-02-13T01:11:19.360Z,25.92
2023-02-13T01:13:46.560Z,18.08
2023-02-13T01:16:16.085Z,23.50
2023-02-13T01:18:42.955Z,25.85
2023-02-13T01:21:19.506Z,14.57
2023-02-13T01:23:46.622Z,17.77
2023-02-13T01:26:21.678Z,18.25
2023-02-13T01:28:48.521Z,24.60
2023-02-13T01:31:15.550Z,21.92
2023-02-13T01:33:42.446Z,17.55
2023-02-13T01:36:10.747Z,21.65
2023-02-13T01:38:37.660Z,21.25
2023-02-13T01:41:04.618Z,23.35
2023-02-13T01:43:44.407Z,19.63
2023-02-13T01:46:11.312Z,17.25
2023-02-13T01:48:38.138Z,18.25
2023-02-13T01:51:07.726Z,18.38
2023-02-13T01:53:56.272Z,20.17
2023-02-13T01:56:29.722Z,19.55
2023-02-13T01:59:00.567Z,18.05
2023-02-13T02:01:27.458Z,18.20
2023-02-13T02:04:04.357Z,21.45
2023-02-13T02:06:35.951Z,20.85
2023-02-13T02:09:06.430Z,18.45
2023-02-13T02:11:37.204Z,19.10
2023-02-13T02:14:04.082Z,18.35
2023-02-13T02:16:30.930Z,16.95
2023-02-13T02:18:57.712Z,15.20
2023-02-13T02:21:24.532Z,16.73
2023-02-13T02:24:12.844Z,18.20
2023-02-13T02:27:05.086Z,19.00
2023-02-13T02:29:43.975Z,18.52
2023-02-13T02:32:38.667Z,21.73
2023-02-13T02:35:23.888Z,21.63
2023-02-13T02:38:21.032Z,21.05
2023-02-13T02:41:39.663Z,23.77
2023-02-13T02:44:09.529Z,17.73
2023-02-13T02:47:13.016Z,20.90
2023-02-13T02:49:59.204Z,19.05
2023-02-13T02:53:03.542Z,21.58
2023-02-13T02:55:36.550Z,19.20
2023-02-13T02:58:43.072Z,19.67
2023-02-13T03:01:34.769Z,21.23
2023-02-13T03:04:19.793Z,21.00
2023-02-13T03:06:52.045Z,19.42
2023-02-13T03:09:41.227Z,16.80
2023-02-13T03:12:26.835Z,18.75
2023-02-13T03:14:53.701Z,20.60
2023-02-13T03:17:38.706Z,17.45
2023-02-13T03:20:30.086Z,20.85
2023-02-13T03:23:36.455Z,19.58
2023-02-13T03:26:33.282Z,16.90
2023-02-13T03:29:30.932Z,15.20
2023-02-13T03:32:12.047Z,17.33
2023-02-13T03:35:12.398Z,19.95
2023-02-13T03:37:55.587Z,17.80
2023-02-13T03:41:01.745Z,22.75
2023-02-13T03:43:30.186Z,18.55
2023-02-13T03:45:57.400Z,15.13
2023-02-13T03:48:50.888Z,17.73
2023-02-13T03:51:34.679Z,17.90
2023-02-13T03:54:03.963Z,17.45
2023-02-13T03:56:49.202Z,17.55
2023-02-13T03:59:25.810Z,18.65
2023-02-13T04:02:11.568Z,15.90
2023-02-13T04:04:55.835Z,19.35
2023-02-13T04:10:12.086Z,21.27
2023-02-13T04:13:01.297Z,18.50
2023-02-13T04:15:29.764Z,18.60
2023-02-13T04:18:27.101Z,16.90
2023-02-13T04:20:53.936Z,17.92
2023-02-13T04:23:20.746Z,22.17
2023-02-13T04:25:49.159Z,24.20
2023-02-13T04:28:16.066Z,18.27
2023-02-13T04:30:42.969Z,16.65
2023-02-13T04:33:09.857Z,16.60
2023-02-13T04:35:36.688Z,15.05
2023-02-13T04:38:03.575Z,17.35
2023-02-13T04:40:30.416Z,23.17
2023-02-13T04:42:57.264Z,19.52
2023-02-13T04:45:24.198Z,22.45
2023-02-13T04:47:54.859Z,18.88
2023-02-13T04:50:21.772Z,18.58
2023-02-13T04:52:50.332Z,15.48
2023-02-13T04:55:17.251Z,21.02
2023-02-13T04:57:44.162Z,20.25
2023-02-13T05:00:11.917Z,15.05
2023-02-13T05:02:39.683Z,20.45
2023-02-13T05:05:06.696Z,18.23
2023-02-13T05:07:33.521Z,15.18
2023-02-13T05:10:00.326Z,16.90
2023-02-13T05:12:27.175Z,17.90
2023-02-13T05:14:54.174Z,22.10
2023-02-13T05:17:20.974Z,19.23
2023-02-13T05:19:47.756Z,22.50
2023-02-13T05:22:33.014Z,23.67
2023-02-13T05:24:59.850Z,20.23
2023-02-13T05:27:26.633Z,17.63
2023-02-13T05:29:53.643Z,17.85
2023-02-13T05:32:20.678Z,20.75
2023-02-13T05:34:47.480Z,19.52
2023-02-13T05:37:14.328Z,20.05
2023-02-13T05:39:41.146Z,20.38
2023-02-13T05:42:09.035Z,22.08
2023-02-13T05:44:35.904Z,18.13
2023-02-13T05:47:02.710Z,19.42
2023-02-13T05:49:29.551Z,19.52
2023-02-13T05:51:56.385Z,17.95
2023-02-13T05:54:23.206Z,19.13
2023-02-13T05:56:50.176Z,17.50
2023-02-13T05:59:17.016Z,20.90
2023-02-13T06:01:43.852Z,16.30
2023-02-13T06:04:10.691Z,18.02
2023-02-13T06:06:37.537Z,22.38
2023-02-13T06:09:04.410Z,20.77
2023-02-13T06:11:31.248Z,20.42
2023-02-13T06:13:58.193Z,17.40
2023-02-13T06:16:25.115Z,16.05
2023-02-13T06:18:52.000Z,18.75
2023-02-13T06:21:18.800Z,19.52
2023-02-13T06:23:45.665Z,20.92
2023-02-13T06:26:12.414Z,19.80
2023-02-13T06:28:39.271Z,20.00
2023-02-13T06:31:06.229Z,21.20
2023-02-13T06:33:33.367Z,22.05
2023-02-13T06:36:00.248Z,17.70
2023-02-13T06:38:27.236Z,16.10
2023-02-13T06:40:54.007Z,16.25
2023-02-13T06:43:20.883Z,21.10
2023-02-13T06:45:47.666Z,19.45
2023-02-13T06:48:14.855Z,16.10
2023-02-13T06:50:41.846Z,20.48
2023-02-13T06:53:08.706Z,21.60
2023-02-13T06:55:36.163Z,18.67
2023-02-13T06:58:03.050Z,23.83
2023-02-13T07:00:29.956Z,24.17
2023-02-13T07:03:03.943Z,24.58
2023-02-13T07:07:57.713Z,18.88
2023-02-13T07:10:24.555Z,19.45
2023-02-13T07:13:04.991Z,18.80
2023-02-13T07:15:35.661Z,18.73
2023-02-13T07:18:02.759Z,18.73
2023-02-13T07:20:29.693Z,19.88
2023-02-13T07:23:00.446Z,23.40
2023-02-13T07:25:27.676Z,19.45
2023-02-13T07:27:54.495Z,24.88
2023-02-13T07:30:21.335Z,23.50
2023-02-13T07:32:48.254Z,19.73
2023-02-13T07:35:15.058Z,21.42
2023-02-13T07:37:41.872Z,20.30
2023-02-13T07:40:09.368Z,22.20
2023-02-13T07:42:36.254Z,23.02
2023-02-13T07:45:05.731Z,25.27
2023-02-13T07:47:34.137Z,22.17
2023-02-13T07:50:01.806Z,19.33
2023-02-13T07:52:28.624Z,23.05
2023-02-13T07:54:55.542Z,22.35
2023-02-13T07:57:22.515Z,22.05
2023-02-13T07:59:49.435Z,19.52
2023-02-13T08:02:16.531Z,17.88
2023-02-13T08:04:52.056Z,23.27
2023-02-13T08:07:18.992Z,29.75
2023-02-13T08:10:04.624Z,22.45
2023-02-13T08:12:32.348Z,22.88
2023-02-13T08:14:59.295Z,30.20
2023-02-13T08:17:26.192Z,28.80
2023-02-13T08:19:53.073Z,21.15
2023-02-13T08:22:19.917Z,27.70
2023-02-13T08:24:47.006Z,27.33
2023-02-13T08:27:14.467Z,29.23
2023-02-13T08:29:41.501Z,22.85
2023-02-13T08:32:08.602Z,26.58
2023-02-13T08:34:35.466Z,24.65
2023-02-13T08:37:04.009Z,25.55
2023-02-13T08:39:31.038Z,25.42
2023-02-13T08:41:58.096Z,29.17
2023-02-13T08:44:24.900Z,25.08
2023-02-13T08:46:51.723Z,28.73
2023-02-13T08:49:18.603Z,39.22
2023-02-13T08:51:45.505Z,34.58
2023-02-13T08:54:12.378Z,38.90
2023-02-13T08:56:39.369Z,39.28
2023-02-13T08:59:06.362Z,33.65
2023-02-13T09:01:33.570Z,39.67
2023-02-13T09:04:00.495Z,34.75
2023-02-13T09:06:27.720Z,33.88
2023-02-13T09:08:54.674Z,33.65
2023-02-13T09:11:23.568Z,39.05
2023-02-13T09:13:53.892Z,29.63
2023-02-13T09:16:20.946Z,27.13
2023-02-13T09:18:48.865Z,35.85
2023-02-13T09:21:15.881Z,38.45
2023-02-13T09:23:42.789Z,44.97
2023-02-13T09:26:11.781Z,32.28
2023-02-13T09:28:39.031Z,29.90
2023-02-13T09:31:10.188Z,30.55
2023-02-13T09:33:37.390Z,29.75
2023-02-13T09:36:06.065Z,28.15
2023-02-13T09:38:33.393Z,28.77
2023-02-13T09:41:03.359Z,25.80
2023-02-13T09:43:35.956Z,24.17
2023-02-13T09:46:12.019Z,29.85
2023-02-13T09:48:40.697Z,35.55
2023-02-13T09:51:07.787Z,31.08
2023-02-13T09:53:36.731Z,24.58
2023-02-13T09:56:30.436Z,27.90
2023-02-13T09:59:06.967Z,30.83
2023-02-13T10:01:42.046Z,29.75
2023-02-13T10:04:29.071Z,25.27
2023-02-13T10:07:06.999Z,23.70
2023-02-13T10:09:39.984Z,20.13
2023-02-13T10:12:32.029Z,26.02
2023-02-13T10:15:05.008Z,22.92
2023-02-13T10:17:36.991Z,16.67
2023-02-13T10:20:07.524Z,19.92
2023-02-13T10:22:38.947Z,21.77
2023-02-13T10:25:30.611Z,21.73
2023-02-13T10:28:39.629Z,19.33
2023-02-13T10:31:12.893Z,20.65
2023-02-13T10:33:39.813Z,15.80
2023-02-13T10:36:09.896Z,19.70
2023-02-13T10:38:52.441Z,21.10
2023-02-13T10:41:26.787Z,22.02
2023-02-13T10:43:56.607Z,18.10
2023-02-13T10:46:44.208Z,19.60
2023-02-13T10:49:36.309Z,19.10
2023-02-13T10:52:32.617Z,17.90
2023-02-13T10:55:30.363Z,16.48
2023-02-13T10:58:34.459Z,16.13
2023-02-13T11:01:21.008Z,20.13
2023-02-13T11:03:49.509Z,20.08
2023-02-13T11:06:17.199Z,15.77
2023-02-13T11:08:46.067Z,17.65
2023-02-13T11:11:32.978Z,15.73
2023-02-13T11:14:10.198Z,18.58
2023-02-13T11:17:04.339Z,18.90
2023-02-13T11:19:39.271Z,17.67
2023-02-13T11:22:14.413Z,22.35
2023-02-13T11:24:43.446Z,18.35
2023-02-13T11:27:13.756Z,13.52
2023-02-13T11:29:56.844Z,18.88
2023-02-13T11:32:25.189Z,16.92
2023-02-13T11:34:52.347Z,14.68
2023-02-13T11:37:21.073Z,19.35
2023-02-13T11:39:51.225Z,16.48
2023-02-13T11:42:35.693Z,19.65
2023-02-13T11:47:36.649Z,14.07
2023-02-13T11:50:04.116Z,18.17
2023-02-13T11:52:40.088Z,12.98
2023-02-13T11:55:28.965Z,13.77
2023-02-13T11:58:12.171Z,16.83
2023-02-13T12:00:40.462Z,15.70
2023-02-13T12:03:26.925Z,15.27
2023-02-13T12:06:08.972Z,16.38
2023-02-13T12:08:37.298Z,16.15
2023-02-13T12:11:10.638Z,17.60
2023-02-13T12:13:39.010Z,19.80
2023-02-13T12:16:21.576Z,13.30
2023-02-13T12:18:53.091Z,16.70
2023-02-13T12:21:29.219Z,20.95
2023-02-13T12:24:16.739Z,18.85
2023-02-13T12:26:56.173Z,17.20
2023-02-13T12:29:51.552Z,19.08
2023-02-13T12:32:19.354Z,20.15
2023-02-13T12:34:48.886Z,18.52
2023-02-13T12:37:19.903Z,14.88
2023-02-13T12:40:27.142Z,18.80
2023-02-13T12:43:15.430Z,19.02
2023-02-13T12:45:53.741Z,16.63
2023-02-13T12:48:26.256Z,14.90
2023-02-13T12:50:59.870Z,18.48
2023-02-13T12:53:47.782Z,15.45
2023-02-13T12:56:32.992Z,11.48
2023-02-13T12:59:04.304Z,20.85
2023-02-13T13:01:49.497Z,17.55
2023-02-13T13:04:34.683Z,21.73
2023-02-13T13:07:13.733Z,17.08
2023-02-13T13:09:59.273Z,16.83
2023-02-13T13:12:43.342Z,13.63
2023-02-13T13:15:13.338Z,14.27
2023-02-13T13:17:56.210Z,17.35
2023-02-13T13:20:49.098Z,18.00
2023-02-13T13:23:21.094Z,14.52
2023-02-13T13:26:11.516Z,19.83
2023-02-13T13:28:40.162Z,18.60
2023-02-13T13:31:07.267Z,13.15
2023-02-13T13:33:34.308Z,16.75
2023-02-13T13:36:19.039Z,17.02
2023-02-13T13:39:27.707Z,14.55
2023-02-13T13:42:23.350Z,20.58
2023-02-13T13:45:14.971Z,18.33
2023-02-13T13:48:03.891Z,16.05
2023-02-13T13:50:32.889Z,16.42
2023-02-13T13:53:19.333Z,21.20
2023-02-13T13:56:06.083Z,18.75
2023-02-13T13:58:45.757Z,16.23
2023-02-13T14:01:25.701Z,14.98
2023-02-13T14:03:57.348Z,19.92
2023-02-13T14:06:27.855Z,18.90
2023-02-13T14:08:57.154Z,16.83
2023-02-13T14:11:29.975Z,17.40
2023-02-13T14:13:56.945Z,14.85
2023-02-13T14:16:42.889Z,15.45
2023-02-13T14:19:34.883Z,15.02
2023-02-13T14:22:35.126Z,21.00
2023-02-13T14:25:06.548Z,15.63
2023-02-13T14:27:38.059Z,19.67
2023-02-13T14:30:06.850Z,15.23
2023-02-13T14:32:41.471Z,17.42
2023-02-13T14:35:21.308Z,15.13
2023-02-13T14:37:56.361Z,14.48
2023-02-13T14:40:23.464Z,14.55
2023-02-13T14:43:02.242Z,12.07
2023-02-13T14:45:34.002Z,15.27
2023-02-13T14:48:06.988Z,13.23
2023-02-13T14:50:49.009Z,13.00
2023-02-13T14:53:28.730Z,14.43
2023-02-13T14:56:06.809Z,19.88
2023-02-13T14:58:36.087Z,12.20
2023-02-13T15:01:22.112Z,14.27
2023-02-13T15:03:54.890Z,12.48
2023-02-13T15:06:27.997Z,15.80
2023-02-13T15:08:54.980Z,16.05
2023-02-13T15:11:51.175Z,14.80
2023-02-13T15:14:19.107Z,11.43
2023-02-13T15:17:09.439Z,16.52
2023-02-13T15:19:37.394Z,17.10
2023-02-13T15:22:05.273Z,15.88
2023-02-13T15:24:44.666Z,12.88
2023-02-13T15:27:31.081Z,12.05
2023-02-13T15:30:00.692Z,12.57
2023-02-13T15:32:30.037Z,11.95
2023-02-13T15:34:57.429Z,18.23
2023-02-13T15:37:25.663Z,13.10
2023-02-13T15:39:52.671Z,13.98
2023-02-13T15:42:19.613Z,13.02
2023-02-13T15:44:49.062Z,17.15
2023-02-13T15:47:20.037Z,12.40
2023-02-13T15:49:47.487Z,16.15
2023-02-13T15:52:34.878Z,19.25
2023-02-13T15:55:02.000Z,13.10
2023-02-13T15:57:28.945Z,13.73
2023-02-13T15:59:56.196Z,19.55
2023-02-13T16:02:45.605Z,15.65
2023-02-13T16:05:13.426Z,16.50
2023-02-13T16:07:51.595Z,14.70
2023-02-13T16:10:27.181Z,18.95
2023-02-13T16:12:54.092Z,15.95
2023-02-13T16:15:21.283Z,17.00
2023-02-13T16:17:48.141Z,14.50
2023-02-13T16:20:19.218Z,18.08
2023-02-13T16:22:46.755Z,14.07
2023-02-13T16:25:14.362Z,14.93
2023-02-13T16:27:45.762Z,15.70
2023-02-13T16:30:24.930Z,16.08
2023-02-13T16:32:51.953Z,15.75
2023-02-13T16:35:22.107Z,16.30
2023-02-13T16:37:51.401Z,20.17
2023-02-13T16:40:41.355Z,18.67
2023-02-13T16:43:34.564Z,18.50
2023-02-13T16:46:34.471Z,21.80
2023-02-13T16:49:10.640Z,19.77
2023-02-13T16:51:49.840Z,16.08
2023-02-13T16:54:38.208Z,17.08
2023-02-13T16:57:14.171Z,17.83
2023-02-13T16:59:59.126Z,18.75
2023-02-13T17:02:30.397Z,19.02
2023-02-13T17:04:59.892Z,26.73
2023-02-13T17:07:30.390Z,25.08
2023-02-13T17:09:59.425Z,34.78
2023-02-13T17:12:26.786Z,33.67
2023-02-13T17:14:53.787Z,31.95
2023-02-13T17:17:22.131Z,27.17
2023-02-13T17:19:49.597Z,26.60
2023-02-13T17:22:23.909Z,25.88
2023-02-13T17:24:51.312Z,30.85
2023-02-13T17:27:18.519Z,30.15
2023-02-13T17:29:45.588Z,24.20
2023-02-13T17:32:18.993Z,24.48
2023-02-13T17:34:49.137Z,23.20
2023-02-13T17:37:27.578Z,28.98
2023-02-13T17:39:54.572Z,21.08
2023-02-13T17:42:26.588Z,25.83
2023-02-13T17:44:57.592Z,21.45
2023-02-13T17:47:26.018Z,26.15
2023-02-13T17:49:59.112Z,21.45
2023-02-13T17:52:32.035Z,29.27
2023-02-13T17:54:59.113Z,20.05
2023-02-13T17:57:26.104Z,26.10
2023-02-13T17:59:53.012Z,25.13
2023-02-13T18:02:22.941Z,23.52
2023-02-13T18:04:50.197Z,23.35
2023-02-13T18:07:18.458Z,26.55
2023-02-13T18:09:45.470Z,23.10
2023-02-13T18:12:17.174Z,30.35
2023-02-13T18:14:44.246Z,34.25
2023-02-13T18:17:11.691Z,26.63
2023-02-13T18:19:38.916Z,29.85
2023-02-13T18:22:06.798Z,28.17
2023-02-13T18:24:34.802Z,28.55
2023-02-13T18:27:02.978Z,32.95
2023-02-13T18:29:30.064Z,24.10
2023-02-13T18:31:58.032Z,28.92
2023-02-13T18:34:25.051Z,30.42
2023-02-13T18:36:51.948Z,33.25
2023-02-13T18:39:18.939Z,28.85
2023-02-13T18:41:46.151Z,26.58
2023-02-13T18:44:23.346Z,21.17
2023-02-13T18:46:54.920Z,24.85
2023-02-13T18:49:21.878Z,28.95
2023-02-13T18:51:48.731Z,24.63
2023-02-13T18:54:16.531Z,29.48
2023-02-13T18:56:43.871Z,25.38
2023-02-13T18:59:11.173Z,27.00
2023-02-13T19:01:38.169Z,24.60
2023-02-13T19:04:05.430Z,30.27
2023-02-13T19:06:32.664Z,23.88
2023-02-13T19:09:00.044Z,21.58
2023-02-13T19:11:27.757Z,29.10
2023-02-13T19:13:55.616Z,32.20
2023-02-13T19:16:22.881Z,35.25
2023-02-13T19:18:53.105Z,30.15
2023-02-13T19:21:24.039Z,30.38
2023-02-13T19:23:52.215Z,23.00
2023-02-13T19:26:20.809Z,30.35
2023-02-13T19:28:48.053Z,29.95
2023-02-13T19:31:19.436Z,25.55
2023-02-13T19:33:46.638Z,26.30
2023-02-13T19:36:15.153Z,20.90
2023-02-13T19:38:43.440Z,24.05
2023-02-13T19:41:15.092Z,33.83
2023-02-13T19:43:42.203Z,23.95
2023-02-13T19:46:15.849Z,23.52
2023-02-13T19:48:52.322Z,33.28
2023-02-13T19:51:42.184Z,25.98
2023-02-13T19:54:17.922Z,31.33
2023-02-13T19:56:48.240Z,29.88
2023-02-13T19:59:15.356Z,20.50
2023-02-13T20:01:48.492Z,23.50
2023-02-13T20:04:23.398Z,25.30
2023-02-13T20:06:51.021Z,35.75
2023-02-13T20:09:27.169Z,22.20
2023-02-13T20:11:56.665Z,32.38
2023-02-13T20:14:23.679Z,23.10
2023-02-13T20:16:51.804Z,26.52
2023-02-13T20:19:24.367Z,25.83
2023-02-13T20:21:51.424Z,26.25
2023-02-13T20:24:20.908Z,24.23
2023-02-13T20:26:50.010Z,27.40
2023-02-13T20:29:21.103Z,21.08
2023-02-13T20:31:54.169Z,24.13
2023-02-13T20:34:21.362Z,19.45
2023-02-13T20:36:48.450Z,29.70
2023-02-13T20:39:15.390Z,27.77
2023-02-13T20:41:42.269Z,21.48
2023-02-13T20:44:11.612Z,23.80
2023-02-13T20:46:39.436Z,21.00
2023-02-13T20:49:06.525Z,22.13
2023-02-13T20:51:33.487Z,23.23
2023-02-13T20:54:00.453Z,24.80
2023-02-13T20:56:28.388Z,28.40
2023-02-13T20:58:59.798Z,27.08
2023-02-13T21:01:27.776Z,29.58
2023-02-13T21:03:55.121Z,30.17
2023-02-13T21:06:21.956Z,23.27
2023-02-13T21:08:49.002Z,25.38
2023-02-13T21:11:16.046Z,32.80
2023-02-13T21:13:42.949Z,26.88
2023-02-13T21:16:18.754Z,27.67
2023-02-13T21:18:48.031Z,26.55
2023-02-13T21:21:15.102Z,26.75
2023-02-13T21:23:42.050Z,23.17
2023-02-13T21:26:13.946Z,24.58
2023-02-13T21:28:41.376Z,24.92
2023-02-13T21:31:13.160Z,21.00
2023-02-13T21:33:40.123Z,23.20
2023-02-13T21:36:08.592Z,24.98
2023-02-13T21:38:36.618Z,20.08
2023-02-13T21:41:07.691Z,26.90
2023-02-13T21:43:37.882Z,22.58
2023-02-13T21:46:24.476Z,25.17
2023-02-13T21:48:56.042Z,26.23
2023-02-13T21:51:23.516Z,21.42
2023-02-13T21:53:50.550Z,25.45
2023-02-13T21:56:22.672Z,24.30
2023-02-13T21:58:49.905Z,25.65
2023-02-13T22:01:26.445Z,22.98
2023-02-13T22:04:00.320Z,26.08
2023-02-13T22:06:28.520Z,29.90
2023-02-13T22:09:02.846Z,28.85
2023-02-13T22:11:29.817Z,23.02
2023-02-13T22:13:57.730Z,24.08
2023-02-13T22:16:24.931Z,34.33
2023-02-13T22:18:51.949Z,24.55
2023-02-13T22:21:21.151Z,26.35
2023-02-13T22:23:48.177Z,24.17
2023-02-13T22:26:23.038Z,29.55
2023-02-13T22:28:50.230Z,26.92
2023-02-13T22:31:17.503Z,29.60
2023-02-13T22:33:47.678Z,27.25
2023-02-13T22:36:18.273Z,25.58
2023-02-13T22:38:45.197Z,29.08
2023-02-13T22:41:13.618Z,22.02
2023-02-13T22:43:40.536Z,25.05
2023-02-13T22:46:28.674Z,24.60
2023-02-13T22:48:55.561Z,20.45
2023-02-13T22:51:24.362Z,20.73
2023-02-13T22:53:55.076Z,20.63
2023-02-13T22:56:22.353Z,18.70
2023-02-13T22:58:49.228Z,25.90
2023-02-13T23:01:18.648Z,27.73
2023-02-13T23:03:46.228Z,28.60
2023-02-13T23:06:14.070Z,22.60
2023-02-13T23:08:41.285Z,29.20
2023-02-13T23:11:28.598Z,24.85
2023-02-13T23:13:55.647Z,24.40
2023-02-13T23:16:22.540Z,21.48
2023-02-13T23:18:53.737Z,20.25
2023-02-13T23:21:21.081Z,27.75
2023-02-13T23:23:48.013Z,24.05
2023-02-13T23:26:14.925Z,24.70
2023-02-13T23:28:41.799Z,23.45
2023-02-13T23:31:08.716Z,22.73
2023-02-13T23:33:35.557Z,23.48
2023-02-13T23:36:05.873Z,25.60
2023-02-13T23:38:32.770Z,28.17
2023-02-13T23:41:08.837Z,24.95
2023-02-13T23:43:35.762Z,24.88
2023-02-13T23:46:07.029Z,29.25
2023-02-13T23:48:34.340Z,25.90
2023-02-13T23:51:01.724Z,25.48
2023-02-13T23:53:28.858Z,23.40
2023-02-13T23:55:56.124Z,25.00
2023-02-13T23:58:23.074Z,23.70
